Time;durP1;ratioP1;P1;durP2;ratioP2;P2;SDS_P1;SDS_P2;PMS_P1;PMS_P2;Temp;Humidity;BMP_temperature;BMP_pressure;BME280_temperature;BME280_humidity;BME280_pressure;Samples;Min_cycle;Max_cycle;Signal;HPM_P1;HPM_P2
2023/11/01 00:00:58;;;;;;;22.27;3.47;;;;;;;;;;5051677;28;20535;-76
2023/11/01 00:03:25;;;;;;;33.50;3.97;;;;;;;;;;5052484;28;20167;-77
2023/11/01 00:05:51;;;;;;;21.63;3.65;;;;;;;;;;5053004;28;20037;-77
2023/11/01 00:08:18;;;;;;;23.65;3.30;;;;;;;;;;5051193;28;20041;-76
2023/11/01 00:10:45;;;;;;;22.50;3.85;;;;;;;;;;5052886;28;20032;-77
2023/11/01 00:13:12;;;;;;;31.05;3.70;;;;;;;;;;5034497;28;20387;-77
2023/11/01 00:15:39;;;;;;;15.35;2.70;;;;;;;;;;5051379;28;20051;-77
2023/11/01 00:18:06;;;;;;;12.17;1.83;;;;;;;;;;5052452;28;20048;-77
2023/11/01 00:20:33;;;;;;;12.95;2.10;;;;;;;;;;5052658;28;20333;-76
2023/11/01 00:23:00;;;;;;;9.43;2.03;;;;;;;;;;5052885;28;20120;-76
2023/11/01 00:25:26;;;;;;;18.20;2.67;;;;;;;;;;5052047;28;20348;-77
2023/11/01 00:27:53;;;;;;;22.35;2.65;;;;;;;;;;5047141;28;20042;-76
2023/11/01 00:30:20;;;;;;;25.73;3.03;;;;;;;;;;5090867;28;20044;-76
2023/11/01 00:32:47;;;;;;;19.73;2.35;;;;;;;;;;5091205;28;20452;-76
2023/11/01 00:35:14;;;;;;;23.60;2.60;;;;;;;;;;5090848;28;20044;-76
2023/11/01 00:37:41;;;;;;;27.35;3.40;;;;;;;;;;5074284;28;20139;-76
2023/11/01 00:40:08;;;;;;;27.25;2.92;;;;;;;;;;5092423;28;20040;-76
2023/11/01 00:42:36;;;;;;;29.33;4.03;;;;;;;;;;5091130;28;20078;-76
2023/11/01 00:45:07;;;;;;;26.25;3.58;;;;;;;;;;5091302;28;20032;-76
2023/11/01 00:47:33;;;;;;;26.48;3.35;;;;;;;;;;5091995;28;20036;-76
2023/11/01 00:50:00;;;;;;;32.70;3.33;;;;;;;;;;5091113;28;20147;-76
2023/11/01 00:52:27;;;;;;;18.80;2.35;;;;;;;;;;5091975;28;20374;-76
2023/11/01 00:54:54;;;;;;;20.75;2.90;;;;;;;;;;5092337;28;20097;-76
2023/11/01 00:57:20;;;;;;;15.98;2.35;;;;;;;;;;5072771;28;20045;-76
2023/11/01 00:59:47;;;;;;;20.02;2.88;;;;;;;;;;5071874;28;20467;-76
2023/11/01 01:02:14;;;;;;;19.42;2.83;;;;;;;;;;5070241;28;20382;-76
2023/11/01 01:04:45;;;;;;;17.38;2.38;;;;;;;;;;5070434;28;20071;-76
2023/11/01 01:07:12;;;;;;;18.90;2.47;;;;;;;;;;5070248;28;20045;-76
2023/11/01 01:09:39;;;;;;;16.95;2.45;;;;;;;;;;5071915;28;20044;-76
2023/11/01 01:12:06;;;;;;;19.17;2.40;;;;;;;;;;5071421;28;20053;-76
2023/11/01 01:14:33;;;;;;;24.20;2.70;;;;;;;;;;5071851;28;20047;-76
2023/11/01 01:17:00;;;;;;;23.20;4.10;;;;;;;;;;5070419;28;20562;-77
2023/11/01 01:19:27;;;;;;;18.45;2.97;;;;;;;;;;5071284;28;20106;-77
2023/11/01 01:21:54;;;;;;;27.90;3.60;;;;;;;;;;5070283;28;20051;-76
2023/11/01 01:24:21;;;;;;;30.02;3.72;;;;;;;;;;5071193;28;20064;-76
2023/11/01 01:26:48;;;;;;;26.02;4.15;;;;;;;;;;5071487;28;20360;-76
2023/11/01 01:29:14;;;;;;;33.08;4.15;;;;;;;;;;5049725;28;20048;-76
2023/11/01 01:31:41;;;;;;;38.20;3.83;;;;;;;;;;5051559;28;20077;-75
2023/11/01 01:34:08;;;;;;;32.22;3.88;;;;;;;;;;5049881;28;20049;-77
2023/11/01 01:36:35;;;;;;;23.45;4.03;;;;;;;;;;5033131;28;20045;-76
2023/11/01 01:39:02;;;;;;;35.28;3.85;;;;;;;;;;5051119;28;20045;-75
2023/11/01 01:41:29;;;;;;;30.52;3.28;;;;;;;;;;5049468;28;20471;-75
2023/11/01 01:43:56;;;;;;;25.65;3.60;;;;;;;;;;5051388;28;20224;-76
2023/11/01 01:46:26;;;;;;;24.83;2.80;;;;;;;;;;5050800;28;20418;-76
2023/11/01 01:48:53;;;;;;;27.45;3.50;;;;;;;;;;5035059;28;20054;-76
2023/11/01 01:51:20;;;;;;;23.35;3.22;;;;;;;;;;5030819;28;20488;-76
2023/11/01 01:53:48;;;;;;;23.85;3.05;;;;;;;;;;5031129;28;20038;-76
2023/11/01 01:56:18;;;;;;;23.25;4.18;;;;;;;;;;5038709;28;20037;-76
2023/11/01 01:58:45;;;;;;;25.00;3.60;;;;;;;;;;5051041;28;20136;-76
2023/11/01 02:01:13;;;;;;;28.38;3.42;;;;;;;;;;5032680;28;20475;-76
2023/11/01 02:03:40;;;;;;;32.90;3.92;;;;;;;;;;5049403;28;20443;-76
2023/11/01 02:06:07;;;;;;;28.27;3.25;;;;;;;;;;5049481;28;20041;-76
2023/11/01 02:08:35;;;;;;;39.78;4.18;;;;;;;;;;5049720;28;20041;-76
2023/11/01 02:11:03;;;;;;;25.35;3.03;;;;;;;;;;5033407;28;20412;-76
2023/11/01 02:13:31;;;;;;;28.95;3.42;;;;;;;;;;5049448;28;20037;-78
2023/11/01 02:15:59;;;;;;;24.30;2.72;;;;;;;;;;5050760;28;20116;-76
2023/11/01 02:18:25;;;;;;;27.05;3.15;;;;;;;;;;5049040;28;20061;-76
2023/11/01 02:20:52;;;;;;;21.48;3.58;;;;;;;;;;5050998;28;20479;-76
2023/11/01 02:23:32;;;;;;;33.33;3.70;;;;;;;;;;5049299;28;20387;-76
2023/11/01 02:26:00;;;;;;;24.15;3.42;;;;;;;;;;5049557;28;20048;-75
2023/11/01 02:28:27;;;;;;;19.80;2.58;;;;;;;;;;5072303;28;20036;-76
2023/11/01 02:30:54;;;;;;;25.83;3.25;;;;;;;;;;5091094;28;20040;-76
2023/11/01 02:33:21;;;;;;;27.73;2.83;;;;;;;;;;5089202;28;20467;-75
2023/11/01 02:35:48;;;;;;;23.08;3.30;;;;;;;;;;5091109;28;20062;-76
2023/11/01 02:38:14;;;;;;;34.47;4.00;;;;;;;;;;5089440;28;20043;-76
2023/11/01 02:40:41;;;;;;;29.30;3.72;;;;;;;;;;5089707;28;20493;-76
2023/11/01 02:43:08;;;;;;;29.77;3.42;;;;;;;;;;5089415;28;20501;-76
2023/11/01 02:45:35;;;;;;;27.38;3.20;;;;;;;;;;5090924;28;20487;-76
2023/11/01 02:48:02;;;;;;;37.28;3.38;;;;;;;;;;5073072;28;20051;-76
2023/11/01 02:50:29;;;;;;;31.85;3.45;;;;;;;;;;5089357;28;20048;-76
2023/11/01 02:52:56;;;;;;;24.27;4.15;;;;;;;;;;5094576;28;20031;-76
2023/11/01 02:55:23;;;;;;;25.00;3.05;;;;;;;;;;5092216;28;20486;-76
2023/11/01 02:57:49;;;;;;;24.48;2.95;;;;;;;;;;5073228;28;20048;-76
2023/11/01 03:00:19;;;;;;;23.65;3.47;;;;;;;;;;5074594;28;20071;-76
2023/11/01 03:02:48;;;;;;;31.10;3.33;;;;;;;;;;5074984;28;20056;-75
2023/11/01 03:05:16;;;;;;;20.35;3.53;;;;;;;;;;5074449;28;20498;-75
2023/11/01 03:07:43;;;;;;;35.85;3.80;;;;;;;;;;5073304;28;20037;-76
2023/11/01 03:10:10;;;;;;;31.50;3.70;;;;;;;;;;5074654;28;20102;-75
2023/11/01 03:12:38;;;;;;;37.58;4.53;;;;;;;;;;5074771;28;20048;-76
2023/11/01 03:15:07;;;;;;;29.53;3.90;;;;;;;;;;5075625;28;20048;-75
2023/11/01 03:17:35;;;;;;;;;;;;;;;;;;5076124;28;20109;-76
2023/11/01 03:20:06;;;;;;;37.38;4.65;;;;;;;;;;5075662;28;19920;-75
2023/11/01 03:22:34;;;;;;;38.38;4.25;;;;;;;;;;5073241;28;20056;-76
2023/11/01 03:25:01;;;;;;;40.50;4.78;;;;;;;;;;5074985;28;20565;-76
2023/11/01 03:27:28;;;;;;;29.92;3.85;;;;;;;;;;5072091;28;20036;-77
2023/11/01 03:29:56;;;;;;;39.20;4.18;;;;;;;;;;5072798;28;20051;-77
2023/11/01 03:32:23;;;;;;;45.40;5.03;;;;;;;;;;5071852;28;20086;-76
2023/11/01 03:34:51;;;;;;;29.85;3.85;;;;;;;;;;5073639;28;20078;-76
2023/11/01 03:37:18;;;;;;;31.25;4.32;;;;;;;;;;5073153;28;20052;-77
2023/11/01 03:39:45;;;;;;;42.65;4.80;;;;;;;;;;5072229;28;20065;-76
2023/11/01 03:42:11;;;;;;;36.08;4.18;;;;;;;;;;5071753;28;20099;-76
2023/11/01 03:44:38;;;;;;;36.47;3.83;;;;;;;;;;5073259;28;20075;-76
2023/11/01 03:47:05;;;;;;;41.97;4.43;;;;;;;;;;5073074;28;20036;-76
2023/11/01 03:49:32;;;;;;;38.08;4.50;;;;;;;;;;5071776;28;20489;-76
2023/11/01 03:52:00;;;;;;;38.28;3.78;;;;;;;;;;5072156;28;20032;-76
2023/11/01 03:54:27;;;;;;;36.40;4.15;;;;;;;;;;5071520;28;20048;-76
2023/11/01 03:56:53;;;;;;;41.83;4.68;;;;;;;;;;5073088;28;20052;-76
2023/11/01 03:59:20;;;;;;;33.97;3.45;;;;;;;;;;5071706;28;20047;-76
2023/11/01 04:01:47;;;;;;;33.72;4.30;;;;;;;;;;5071470;28;20040;-76
2023/11/01 04:04:14;;;;;;;45.58;4.63;;;;;;;;;;5072741;28;20417;-76
2023/11/01 04:06:41;;;;;;;37.85;4.60;;;;;;;;;;5073012;28;20045;-76
2023/11/01 04:09:07;;;;;;;29.10;4.22;;;;;;;;;;5072754;28;20509;-76
2023/11/01 04:11:34;;;;;;;40.67;5.03;;;;;;;;;;5071496;28;20048;-76
2023/11/01 04:14:01;;;;;;;35.35;4.60;;;;;;;;;;5071768;28;20040;-76
2023/11/01 04:16:28;;;;;;;48.22;5.50;;;;;;;;;;5071068;28;20033;-76
2023/11/01 04:18:59;;;;;;;46.75;5.13;;;;;;;;;;5073038;28;20044;-76
2023/11/01 04:21:26;;;;;;;41.40;5.28;;;;;;;;;;5072688;28;20044;-76
2023/11/01 04:23:53;;;;;;;42.05;4.68;;;;;;;;;;5071691;28;20352;-76
2023/11/01 04:26:20;;;;;;;53.03;5.22;;;;;;;;;;5070988;28;20077;-76
2023/11/01 04:28:47;;;;;;;51.88;5.13;;;;;;;;;;5072789;28;20068;-76
2023/11/01 04:31:17;;;;;;;41.92;4.50;;;;;;;;;;5073280;28;20043;-76
2023/11/01 04:33:45;;;;;;;47.63;5.15;;;;;;;;;;5074269;28;20036;-76
2023/11/01 04:36:12;;;;;;;54.95;5.63;;;;;;;;;;5073664;28;20287;-75
2023/11/01 04:38:39;;;;;;;39.80;4.28;;;;;;;;;;5072329;28;20478;-76
2023/11/01 04:41:09;;;;;;;42.38;6.07;;;;;;;;;;5071177;28;20079;-76
2023/11/01 04:43:36;;;;;;;50.53;5.38;;;;;;;;;;5071172;28;20037;-76
2023/11/01 04:46:04;;;;;;;38.70;5.20;;;;;;;;;;5054596;28;20463;-75
2023/11/01 04:48:32;;;;;;;47.60;4.50;;;;;;;;;;5072247;28;20052;-76
2023/11/01 04:50:59;;;;;;;45.45;5.63;;;;;;;;;;5071195;28;20071;-75
2023/11/01 04:53:27;;;;;;;31.00;4.57;;;;;;;;;;5070350;28;20049;-76
2023/11/01 04:55:54;;;;;;;40.45;4.25;;;;;;;;;;5070843;28;20044;-76
2023/11/01 04:58:22;;;;;;;37.10;5.30;;;;;;;;;;5070311;28;20041;-76
2023/11/01 05:00:49;;;;;;;35.25;5.53;;;;;;;;;;5054190;28;20036;-77
2023/11/01 05:03:17;;;;;;;37.10;4.75;;;;;;;;;;5072247;28;20124;-76
2023/11/01 05:05:44;;;;;;;29.45;4.32;;;;;;;;;;5070877;28;20127;-76
2023/11/01 05:08:11;;;;;;;40.92;4.78;;;;;;;;;;5070591;28;20044;-76
2023/11/01 05:10:38;;;;;;;47.58;4.75;;;;;;;;;;5070931;28;20234;-76
2023/11/01 05:13:05;;;;;;;37.08;4.57;;;;;;;;;;5072131;28;20048;-76
2023/11/01 05:15:34;;;;;;;40.15;5.45;;;;;;;;;;5070187;28;20094;-77
2023/11/01 05:18:01;;;;;;;40.08;5.55;;;;;;;;;;5070942;28;20076;-76
2023/11/01 05:20:28;;;;;;;17.35;2.55;;;;;;;;;;5070039;28;20520;-76
2023/11/01 05:22:55;;;;;;;19.60;3.17;;;;;;;;;;5070647;28;20123;-75
2023/11/01 05:25:23;;;;;;;11.15;2.08;;;;;;;;;;5071447;28;20450;-75
2023/11/01 05:27:53;;;;;;;14.98;2.65;;;;;;;;;;5071716;28;20048;-75
2023/11/01 05:30:19;;;;;;;20.67;2.90;;;;;;;;;;5071473;28;20036;-76
2023/11/01 05:32:47;;;;;;;19.40;2.65;;;;;;;;;;5071864;28;20067;-77
2023/11/01 05:35:14;;;;;;;16.52;2.80;;;;;;;;;;5071167;28;20056;-76
2023/11/01 05:37:43;;;;;;;16.92;2.55;;;;;;;;;;5071417;28;20520;-76
2023/11/01 05:40:13;;;;;;;26.52;3.72;;;;;;;;;;5069990;28;20111;-75
2023/11/01 05:42:44;;;;;;;21.58;4.10;;;;;;;;;;5071333;28;20033;-76
2023/11/01 05:45:16;;;;;;;30.58;3.33;;;;;;;;;;5069959;28;20048;-76
2023/11/01 05:47:51;;;;;;;32.38;4.30;;;;;;;;;;5071618;28;20415;-76
2023/11/01 05:50:23;;;;;;;30.45;5.15;;;;;;;;;;5070878;28;20154;-76
2023/11/01 05:52:53;;;;;;;30.20;4.25;;;;;;;;;;5070295;28;20033;-76
2023/11/01 05:55:19;;;;;;;24.50;3.70;;;;;;;;;;5070912;28;20048;-75
2023/11/01 05:57:59;;;;;;;34.60;3.88;;;;;;;;;;5071309;28;20773;-75
2023/11/01 06:00:26;;;;;;;23.50;3.95;;;;;;;;;;5069488;28;20053;-75
2023/11/01 06:02:53;;;;;;;29.30;3.65;;;;;;;;;;5070092;28;20052;-76
2023/11/01 06:05:22;;;;;;;23.50;3.22;;;;;;;;;;5070915;28;20044;-76
2023/11/01 06:07:50;;;;;;;29.55;3.80;;;;;;;;;;5071419;28;20043;-76
2023/11/01 06:10:17;;;;;;;27.33;3.65;;;;;;;;;;5069732;28;20064;-75
2023/11/01 06:12:44;;;;;;;21.58;3.42;;;;;;;;;;5069845;28;20095;-75
2023/11/01 06:15:11;;;;;;;22.42;2.97;;;;;;;;;;5070904;28;20094;-75
2023/11/01 06:17:39;;;;;;;23.70;3.95;;;;;;;;;;5069998;28;20366;-76
2023/11/01 06:20:06;;;;;;;25.58;3.45;;;;;;;;;;5070944;28;20483;-75
2023/11/01 06:22:33;;;;;;;20.35;2.90;;;;;;;;;;5070918;28;20045;-75
2023/11/01 06:25:01;;;;;;;24.35;2.55;;;;;;;;;;5071672;28;20040;-75
2023/11/01 06:27:28;;;;;;;24.70;3.60;;;;;;;;;;5074495;28;20082;-82
2023/11/01 06:29:55;;;;;;;24.40;3.70;;;;;;;;;;5075431;28;20066;-75
2023/11/01 06:32:22;;;;;;;35.70;4.30;;;;;;;;;;5073333;28;20051;-75
2023/11/01 06:34:49;;;;;;;31.50;4.15;;;;;;;;;;5075225;28;20032;-75
2023/11/01 06:37:15;;;;;;;37.65;4.20;;;;;;;;;;5073318;28;20045;-75
2023/11/01 06:39:42;;;;;;;19.73;3.08;;;;;;;;;;5074855;28;20048;-75
2023/11/01 06:42:09;;;;;;;40.17;4.05;;;;;;;;;;5073315;28;20047;-75
2023/11/01 06:44:36;;;;;;;25.45;2.88;;;;;;;;;;5073453;28;20040;-75
2023/11/01 06:47:02;;;;;;;23.17;2.85;;;;;;;;;;5073857;28;20546;-75
2023/11/01 06:49:29;;;;;;;14.98;2.30;;;;;;;;;;5094460;28;20342;-75
2023/11/01 06:51:58;;;;;;;20.55;2.55;;;;;;;;;;5093975;28;20044;-75
2023/11/01 06:54:24;;;;;;;23.52;2.60;;;;;;;;;;5076364;28;20044;-75
2023/11/01 06:56:51;;;;;;;16.75;2.17;;;;;;;;;;5080188;28;20485;-75
2023/11/01 06:59:18;;;;;;;17.70;2.38;;;;;;;;;;5074062;28;20123;-75
2023/11/01 07:01:45;;;;;;;23.15;2.95;;;;;;;;;;5062416;28;20064;-74
2023/11/01 07:04:12;;;;;;;22.08;3.20;;;;;;;;;;5055773;28;20128;-75
2023/11/01 07:06:41;;;;;;;24.60;3.25;;;;;;;;;;5054775;28;20115;-75
2023/11/01 07:09:09;;;;;;;25.40;4.07;;;;;;;;;;5055454;28;20041;-76
2023/11/01 07:11:36;;;;;;;16.00;2.13;;;;;;;;;;5056178;28;20037;-75
2023/11/01 07:14:04;;;;;;;22.02;2.80;;;;;;;;;;5088253;28;20442;-76
2023/11/01 07:16:42;;;;;;;19.55;2.47;;;;;;;;;;5047370;28;20041;-76
2023/11/01 07:19:09;;;;;;;20.55;2.88;;;;;;;;;;5087457;28;20045;-75
2023/11/01 07:21:35;;;;;;;24.10;2.80;;;;;;;;;;5055659;28;20045;-76
2023/11/01 07:24:03;;;;;;;22.83;3.03;;;;;;;;;;5054541;28;20063;-76
2023/11/01 07:26:29;;;;;;;18.13;3.08;;;;;;;;;;5055334;28;20068;-76
2023/11/01 07:28:56;;;;;;;21.55;3.72;;;;;;;;;;5072847;28;20040;-75
2023/11/01 07:31:23;;;;;;;24.75;3.00;;;;;;;;;;5075094;28;20040;-76
2023/11/01 07:33:50;;;;;;;17.08;2.72;;;;;;;;;;5075602;28;20045;-76
2023/11/01 07:36:16;;;;;;;22.60;3.25;;;;;;;;;;5074964;28;20044;-75
2023/11/01 07:38:43;;;;;;;24.17;3.03;;;;;;;;;;5074710;28;20064;-75
2023/11/01 07:41:10;;;;;;;17.58;2.60;;;;;;;;;;5074852;28;20051;-75
2023/11/01 07:43:41;;;;;;;20.83;2.47;;;;;;;;;;5092611;28;20050;-75
2023/11/01 07:46:09;;;;;;;24.30;2.58;;;;;;;;;;5085287;28;20044;-76
2023/11/01 07:48:36;;;;;;;21.02;2.08;;;;;;;;;;5075008;28;20463;-76
2023/11/01 07:51:05;;;;;;;23.65;3.38;;;;;;;;;;5091598;28;20036;-76
2023/11/01 07:53:33;;;;;;;23.02;3.33;;;;;;;;;;5086059;28;20047;-75
2023/11/01 07:56:01;;;;;;;24.75;4.45;;;;;;;;;;5066633;28;20132;-75
2023/11/01 07:58:29;;;;;;;27.58;2.97;;;;;;;;;;5077603;28;20090;-76
2023/11/01 08:00:56;;;;;;;26.67;3.15;;;;;;;;;;5073129;28;20483;-75
2023/11/01 08:03:23;;;;;;;25.80;3.50;;;;;;;;;;5071592;28;22766;-76
2023/11/01 08:05:51;;;;;;;20.42;3.47;;;;;;;;;;5071889;28;20125;-75
2023/11/01 08:08:18;;;;;;;31.42;3.65;;;;;;;;;;5071521;28;20044;-76
2023/11/01 08:10:45;;;;;;;25.30;3.63;;;;;;;;;;5072842;28;20044;-76
2023/11/01 08:13:12;;;;;;;17.15;3.10;;;;;;;;;;5072410;28;20040;-76
2023/11/01 08:15:38;;;;;;;29.58;3.55;;;;;;;;;;5072087;28;20131;-76
2023/11/01 08:18:05;;;;;;;24.13;3.40;;;;;;;;;;5071237;28;20041;-74
2023/11/01 08:20:32;;;;;;;23.13;3.42;;;;;;;;;;5071600;28;20383;-76
2023/11/01 08:22:59;;;;;;;24.85;3.13;;;;;;;;;;5072977;28;20037;-75
2023/11/01 08:25:26;;;;;;;33.45;4.93;;;;;;;;;;5072044;28;20040;-75
2023/11/01 08:27:52;;;;;;;29.58;3.42;;;;;;;;;;5071418;28;20050;-76
2023/11/01 08:30:19;;;;;;;23.73;3.13;;;;;;;;;;5072372;28;20139;-77
2023/11/01 08:32:46;;;;;;;24.85;2.80;;;;;;;;;;5077431;28;20055;-76
2023/11/01 08:35:13;;;;;;;24.67;3.10;;;;;;;;;;5072046;28;20482;-76
2023/11/01 08:37:40;;;;;;;15.75;2.65;;;;;;;;;;5070958;28;20479;-76
2023/11/01 08:40:08;;;;;;;27.08;3.35;;;;;;;;;;5072397;28;20044;-76
2023/11/01 08:42:35;;;;;;;26.73;4.15;;;;;;;;;;5070700;28;20045;-76
2023/11/01 08:45:02;;;;;;;27.52;3.38;;;;;;;;;;5070005;28;20032;-76
2023/11/01 08:47:38;;;;;;;26.50;3.28;;;;;;;;;;5070749;28;20086;-76
2023/11/01 08:50:07;;;;;;;28.95;3.38;;;;;;;;;;5069028;28;20085;-76
2023/11/01 08:52:34;;;;;;;25.67;3.63;;;;;;;;;;5072922;28;20056;-77
2023/11/01 08:55:01;;;;;;;22.02;3.40;;;;;;;;;;5077705;28;20037;-77
2023/11/01 08:57:28;;;;;;;19.08;3.17;;;;;;;;;;5074940;28;20107;-77
2023/11/01 08:59:58;;;;;;;21.30;3.08;;;;;;;;;;5077029;28;20040;-76
2023/11/01 09:02:28;;;;;;;23.48;2.88;;;;;;;;;;5051974;28;20037;-76
2023/11/01 09:04:56;;;;;;;24.13;4.05;;;;;;;;;;5076471;28;20049;-77
2023/11/01 09:07:23;;;;;;;22.38;3.90;;;;;;;;;;5077658;28;20036;-77
2023/11/01 09:09:51;;;;;;;30.77;3.97;;;;;;;;;;5076187;28;20063;-75
2023/11/01 09:12:18;;;;;;;26.73;3.80;;;;;;;;;;5072933;28;20445;-76
2023/11/01 09:14:46;;;;;;;28.50;3.30;;;;;;;;;;5072845;28;20044;-76
2023/11/01 09:17:13;;;;;;;23.77;4.03;;;;;;;;;;5071411;28;20044;-76
2023/11/01 09:19:41;;;;;;;28.13;4.68;;;;;;;;;;5071686;28;20044;-77
2023/11/01 09:22:11;;;;;;;29.67;3.72;;;;;;;;;;5069779;28;20127;-77
2023/11/01 09:24:38;;;;;;;28.15;3.55;;;;;;;;;;5072279;28;20041;-75
2023/11/01 09:27:05;;;;;;;26.92;4.20;;;;;;;;;;5051856;28;20053;-74
2023/11/01 09:29:32;;;;;;;37.78;4.00;;;;;;;;;;5065592;28;20563;-76
2023/11/01 09:31:59;;;;;;;26.00;4.07;;;;;;;;;;5042589;28;20099;-76
2023/11/01 09:34:26;;;;;;;34.25;4.95;;;;;;;;;;5047949;28;20367;-76
2023/11/01 09:36:53;;;;;;;34.13;4.60;;;;;;;;;;5068829;28;20090;-76
2023/11/01 09:39:20;;;;;;;24.13;4.38;;;;;;;;;;5067719;28;20048;-76
2023/11/01 09:41:53;;;;;;;28.75;4.22;;;;;;;;;;5074417;28;20078;-76
2023/11/01 09:44:19;;;;;;;35.20;4.80;;;;;;;;;;5070041;28;20044;-76
2023/11/01 09:46:47;;;;;;;27.58;4.38;;;;;;;;;;5056030;28;20302;-77
2023/11/01 09:49:18;;;;;;;32.28;4.07;;;;;;;;;;5044963;28;20087;-77
2023/11/01 09:51:45;;;;;;;35.13;4.22;;;;;;;;;;5062986;28;20048;-77
2023/11/01 09:54:12;;;;;;;27.50;4.30;;;;;;;;;;5068443;28;20049;-77
2023/11/01 09:56:44;;;;;;;29.88;4.47;;;;;;;;;;5074085;28;20040;-76
2023/11/01 09:59:12;;;;;;;33.38;5.10;;;;;;;;;;5070036;28;20048;-77
2023/11/01 10:01:40;;;;;;;31.00;3.83;;;;;;;;;;5068532;28;20045;-77
2023/11/01 10:04:07;;;;;;;40.27;4.70;;;;;;;;;;5069123;28;20132;-77
2023/11/01 10:06:38;;;;;;;26.70;3.90;;;;;;;;;;5067474;28;20408;-77
2023/11/01 10:09:06;;;;;;;30.23;4.57;;;;;;;;;;5063293;28;20072;-76
2023/11/01 10:11:33;;;;;;;31.98;4.10;;;;;;;;;;5063856;28;20064;-77
2023/11/01 10:14:02;;;;;;;29.42;4.57;;;;;;;;;;5070063;28;20037;-76
2023/11/01 10:16:30;;;;;;;26.80;4.38;;;;;;;;;;5049807;28;20398;-77
2023/11/01 10:18:57;;;;;;;31.40;4.43;;;;;;;;;;5069696;28;20040;-76
2023/11/01 10:21:27;;;;;;;26.50;4.80;;;;;;;;;;5068514;28;20050;-78
2023/11/01 10:23:58;;;;;;;27.27;4.28;;;;;;;;;;5071289;28;20399;-75
2023/11/01 10:26:29;;;;;;;42.42;5.35;;;;;;;;;;5070311;28;20044;-75
2023/11/01 10:28:57;;;;;;;29.30;4.82;;;;;;;;;;5072738;28;20048;-80
2023/11/01 10:31:24;;;;;;;38.03;4.53;;;;;;;;;;5070234;28;20075;-75
2023/11/01 10:33:52;;;;;;;27.30;4.22;;;;;;;;;;5073980;28;20037;-75
2023/11/01 10:36:19;;;;;;;29.03;4.47;;;;;;;;;;5074680;28;20036;-75
2023/11/01 10:38:50;;;;;;;28.58;4.20;;;;;;;;;;5072598;28;20283;-76
2023/11/01 10:41:18;;;;;;;17.40;2.38;;;;;;;;;;5076830;28;20040;-79
2023/11/01 10:43:47;;;;;;;12.48;2.10;;;;;;;;;;5075464;28;20114;-77
2023/11/01 10:46:15;;;;;;;12.27;2.63;;;;;;;;;;5060731;28;20036;-78
2023/11/01 10:48:44;;;;;;;12.48;1.80;;;;;;;;;;5074423;28;20040;-74
2023/11/01 10:51:11;;;;;;;;;;;;;;;;;;5034750;28;20042;-74
2023/11/01 10:53:39;;;;;;;19.50;2.92;;;;;;;;;;5061253;28;19946;-76
2023/11/01 10:56:07;;;;;;;21.77;3.15;;;;;;;;;;5068587;28;20351;-76
2023/11/01 10:58:39;;;;;;;15.13;2.60;;;;;;;;;;5072605;28;20032;-76
2023/11/01 11:01:29;;;;;;;21.48;4.13;;;;;;;;;;5068731;28;20051;-76
2023/11/01 11:04:12;;;;;;;27.33;4.38;;;;;;;;;;5068481;28;20055;-76
2023/11/01 11:06:49;;;;;;;25.67;4.85;;;;;;;;;;5068186;28;20514;-76
2023/11/01 11:09:21;;;;;;;26.90;4.20;;;;;;;;;;5074925;28;20781;-75
2023/11/01 11:12:13;;;;;;;36.92;5.00;;;;;;;;;;5074511;28;20036;-76
2023/11/01 11:14:44;;;;;;;32.90;4.50;;;;;;;;;;5061195;28;20048;-75
2023/11/01 11:17:15;;;;;;;25.35;3.95;;;;;;;;;;5077870;28;20546;-76
2023/11/01 11:20:24;;;;;;;31.25;4.25;;;;;;;;;;5069886;28;20050;-76
2023/11/01 11:22:57;;;;;;;29.10;4.90;;;;;;;;;;5055141;28;20048;-76
2023/11/01 11:26:01;;;;;;;30.90;3.92;;;;;;;;;;5051051;28;20048;-75
2023/11/01 11:28:29;;;;;;;25.05;3.65;;;;;;;;;;5052401;28;20041;-75
2023/11/01 11:31:11;;;;;;;17.40;3.20;;;;;;;;;;5063161;28;20138;-76
2023/11/01 11:33:58;;;;;;;21.13;3.30;;;;;;;;;;5075191;28;20509;-76
2023/11/01 11:36:26;;;;;;;19.20;2.55;;;;;;;;;;5071866;28;20127;-75
2023/11/01 11:38:57;;;;;;;16.48;2.58;;;;;;;;;;5070660;28;20044;-75
2023/11/01 11:41:24;;;;;;;20.05;2.47;;;;;;;;;;5079506;28;20040;-76
2023/11/01 11:43:58;;;;;;;16.30;2.33;;;;;;;;;;5066674;28;20037;-75
2023/11/01 11:46:34;;;;;;;18.98;2.88;;;;;;;;;;5047467;28;20395;-75
2023/11/01 11:49:08;;;;;;;20.67;2.72;;;;;;;;;;5070900;28;20051;-74
2023/11/01 11:51:36;;;;;;;15.93;2.63;;;;;;;;;;5070774;28;20119;-75
2023/11/01 11:54:11;;;;;;;17.67;2.10;;;;;;;;;;5073320;28;20036;-75
2023/11/01 11:56:39;;;;;;;15.10;2.30;;;;;;;;;;5064651;28;20119;-73
2023/11/01 11:59:06;;;;;;;18.10;2.95;;;;;;;;;;5070870;28;20114;-73
2023/11/01 12:01:33;;;;;;;17.35;3.63;;;;;;;;;;5077640;28;20391;-72
2023/11/01 12:04:00;;;;;;;15.45;2.65;;;;;;;;;;5070743;28;20119;-72
2023/11/01 12:06:50;;;;;;;11.95;2.00;;;;;;;;;;5058328;28;20489;-72
2023/11/01 12:09:22;;;;;;;16.80;2.92;;;;;;;;;;5071468;28;20539;-74
2023/11/01 12:11:49;;;;;;;12.85;2.53;;;;;;;;;;5074672;28;20496;-73
2023/11/01 12:14:24;;;;;;;15.05;2.10;;;;;;;;;;5071519;28;20102;-73
2023/11/01 12:16:53;;;;;;;18.10;2.55;;;;;;;;;;5072245;28;20045;-76
2023/11/01 12:19:22;;;;;;;18.65;2.90;;;;;;;;;;5052147;28;20037;-76
2023/11/01 12:21:53;;;;;;;17.80;2.30;;;;;;;;;;5066411;28;20047;-76
2023/11/01 12:24:46;;;;;;;15.60;2.50;;;;;;;;;;5039499;28;20040;-75
2023/11/01 12:27:21;;;;;;;12.23;2.22;;;;;;;;;;5072262;28;20040;-75
2023/11/01 12:29:49;;;;;;;13.90;2.28;;;;;;;;;;5067076;28;20064;-75
2023/11/01 12:32:18;;;;;;;15.65;2.28;;;;;;;;;;5066524;28;20132;-76
2023/11/01 12:34:48;;;;;;;19.30;2.30;;;;;;;;;;5071718;28;20045;-75
2023/11/01 12:37:18;;;;;;;17.63;2.03;;;;;;;;;;5066577;28;20068;-75
2023/11/01 12:40:15;;;;;;;14.52;2.15;;;;;;;;;;5072382;28;20414;-76
2023/11/01 12:42:43;;;;;;;14.65;2.13;;;;;;;;;;5071170;28;20098;-76
2023/11/01 12:45:10;;;;;;;18.30;2.90;;;;;;;;;;5071554;28;20045;-76
2023/11/01 12:47:52;;;;;;;16.40;2.38;;;;;;;;;;5072357;28;20418;-75
2023/11/01 12:50:31;;;;;;;12.10;2.50;;;;;;;;;;5071666;28;20048;-76
2023/11/01 12:52:58;;;;;;;9.53;2.27;;;;;;;;;;5072216;28;20060;-76
2023/11/01 12:55:26;;;;;;;12.32;2.15;;;;;;;;;;5056434;28;20490;-75
2023/11/01 12:57:54;;;;;;;11.55;1.50;;;;;;;;;;5070504;28;20029;-76
2023/11/01 13:00:25;;;;;;;15.38;2.20;;;;;;;;;;5058176;28;20048;-76
2023/11/01 13:02:52;;;;;;;11.60;1.83;;;;;;;;;;5071224;28;20048;-76
2023/11/01 13:05:20;;;;;;;12.38;1.70;;;;;;;;;;5061637;28;20045;-76
2023/11/01 13:07:47;;;;;;;19.25;2.30;;;;;;;;;;5067288;28;20053;-75
2023/11/01 13:10:14;;;;;;;11.05;1.67;;;;;;;;;;5071476;28;20044;-76
2023/11/01 13:12:45;;;;;;;14.98;2.33;;;;;;;;;;5070008;28;20048;-76
2023/11/01 13:15:14;;;;;;;18.45;2.70;;;;;;;;;;5059690;28;20097;-75
2023/11/01 13:17:41;;;;;;;18.83;2.90;;;;;;;;;;5049608;28;20036;-77
2023/11/01 13:20:08;;;;;;;15.35;2.13;;;;;;;;;;5064748;28;20127;-76
2023/11/01 13:22:35;;;;;;;16.80;2.40;;;;;;;;;;5063828;28;20127;-77
2023/11/01 13:25:02;;;;;;;13.98;2.60;;;;;;;;;;5069624;28;20448;-77
2023/11/01 13:27:29;;;;;;;19.77;2.40;;;;;;;;;;5068551;28;20047;-76
2023/11/01 13:29:56;;;;;;;17.42;2.45;;;;;;;;;;5064302;28;20090;-77
2023/11/01 13:32:23;;;;;;;19.00;2.05;;;;;;;;;;5069042;28;20048;-77
2023/11/01 13:34:50;;;;;;;9.30;2.42;;;;;;;;;;5068902;28;20041;-76
2023/11/01 13:37:16;;;;;;;13.82;2.42;;;;;;;;;;5067077;28;20067;-77
2023/11/01 13:39:43;;;;;;;19.33;3.25;;;;;;;;;;5069375;28;20063;-77
2023/11/01 13:42:11;;;;;;;20.15;2.90;;;;;;;;;;5068428;28;20048;-77
2023/11/01 13:44:41;;;;;;;25.38;3.58;;;;;;;;;;5067093;28;20036;-77
2023/11/01 13:47:08;;;;;;;14.50;2.53;;;;;;;;;;5064567;28;20129;-75
2023/11/01 13:49:38;;;;;;;15.32;3.15;;;;;;;;;;5070507;28;20044;-78
2023/11/01 13:52:05;;;;;;;14.82;2.85;;;;;;;;;;5067764;28;20051;-75
2023/11/01 13:54:32;;;;;;;17.83;2.50;;;;;;;;;;5070961;28;20048;-76
2023/11/01 13:56:59;;;;;;;15.00;2.72;;;;;;;;;;5070175;28;20052;-75
2023/11/01 13:59:26;;;;;;;16.73;3.47;;;;;;;;;;5071408;28;20123;-79
2023/11/01 14:01:55;;;;;;;20.00;3.15;;;;;;;;;;5049772;28;20047;-79
2023/11/01 14:04:22;;;;;;;25.52;3.35;;;;;;;;;;5062432;28;20037;-80
2023/11/01 14:06:50;;;;;;;25.40;3.42;;;;;;;;;;5050191;28;20156;-79
2023/11/01 14:09:19;;;;;;;14.55;2.35;;;;;;;;;;5049342;28;20045;-76
2023/11/01 14:11:50;;;;;;;19.60;2.60;;;;;;;;;;5051234;28;20087;-76
2023/11/01 14:14:21;;;;;;;17.65;2.55;;;;;;;;;;5067086;28;20052;-76
2023/11/01 14:16:48;;;;;;;17.83;3.03;;;;;;;;;;5059530;28;20283;-76
2023/11/01 14:19:15;;;;;;;19.83;2.83;;;;;;;;;;5049420;28;20041;-76
2023/11/01 14:21:41;;;;;;;19.02;3.60;;;;;;;;;;5049817;28;20044;-78
2023/11/01 14:24:09;;;;;;;18.42;3.08;;;;;;;;;;5051289;28;20037;-76
2023/11/01 14:26:37;;;;;;;21.55;3.03;;;;;;;;;;5069705;28;20325;-76
2023/11/01 14:29:04;;;;;;;20.88;2.47;;;;;;;;;;5085818;28;20131;-75
2023/11/01 14:31:31;;;;;;;16.45;2.28;;;;;;;;;;5070728;28;20044;-76
2023/11/01 14:33:58;;;;;;;21.58;2.90;;;;;;;;;;5066240;28;20048;-76
2023/11/01 14:36:25;;;;;;;19.90;2.60;;;;;;;;;;5069317;28;20985;-76
2023/11/01 14:38:52;;;;;;;18.85;2.67;;;;;;;;;;5072418;28;20044;-77